Weather reports worldwide

Advertisment
Bridgefoot, United Kingdom (99137): temperature & dewpoint: 23.09.2020 02:00:00 - 29.09.2020 02:00:00 (BST)Bridgefoot, United Kingdom (99137): precipitation: 23.09.2020 02:00:00 - 29.09.2020 02:00:00 (BST)
Date & Time tt [°C] td [°C] rr [mm]
29.09.2020 02:00:00 2,7 2,4 0,0
29.09.2020 01:00:00 3,8 3,4 0,0
29.09.2020 00:00:00 5,5 5,1 0,0
28.09.2020 23:00:00 8,1 7,8 0,0
28.09.2020 22:00:00 9,6 9,2 0,0
28.09.2020 21:00:00 10,4 10,0 0,0
28.09.2020 20:00:00 10,8 10,2 0,0
28.09.2020 19:00:00 11,8 11,1 0,0
28.09.2020 18:00:00 12,8 12,0 0,4
28.09.2020 17:00:00 13,2 12,5 -
28.09.2020 16:00:00 13,2 12,5 0,4
28.09.2020 15:00:00 13,9 12,2 0,0
28.09.2020 14:00:00 14,4 12,5 0,0
28.09.2020 13:00:00 13,4 11,9 0,0
28.09.2020 12:00:00 13,9 12,2 0,0
28.09.2020 11:00:00 12,8 11,7 0,0
28.09.2020 10:00:00 8,6 8,6 0,0
28.09.2020 09:00:00 7,3 7,3 0,0
28.09.2020 08:00:00 5,6 5,6 0,0
28.09.2020 07:00:00 4,6 4,6 0,0
28.09.2020 06:00:00 3,2 3,1 0,0
28.09.2020 05:00:00 2,2 2,1 0,0
28.09.2020 04:00:00 2,0 2,0 0,0
28.09.2020 03:00:00 1,2 1,0 0,0
28.09.2020 02:00:00 0,3 0,0 0,0
28.09.2020 01:00:00 0,6 0,2 0,0
28.09.2020 00:00:00 1,3 0,9 0,0
27.09.2020 23:00:00 2,3 1,7 0,0
27.09.2020 22:00:00 3,2 2,7 0,0
27.09.2020 21:00:00 3,5 2,5 0,0
27.09.2020 20:00:00 5,5 4,3 0,0
27.09.2020 19:00:00 7,9 4,9 0,0
27.09.2020 18:00:00 10,8 4,4 0,0
27.09.2020 17:00:00 12,7 3,7 -
27.09.2020 16:00:00 12,9 3,2 0,0
27.09.2020 15:00:00 13,4 5,0 0,0
27.09.2020 14:00:00 12,8 5,2 0,0
27.09.2020 13:00:00 11,9 3,6 0,0
27.09.2020 12:00:00 11,0 4,8 0,0
27.09.2020 11:00:00 9,0 5,8 0,0
27.09.2020 10:00:00 5,8 5,6 0,0
27.09.2020 09:00:00 1,8 1,8 0,0
27.09.2020 08:00:00 -0,2 -0,3 0,0
27.09.2020 07:00:00 -0,5 -0,6 0,0
27.09.2020 06:00:00 -0,9 -1,1 0,0
27.09.2020 05:00:00 -0,7 -0,9 0,0
27.09.2020 04:00:00 0,3 0,1 0,0
27.09.2020 03:00:00 0,4 0,1 0,0
27.09.2020 02:00:00 1,0 0,8 0,0
27.09.2020 01:00:00 0,2 -0,2 0,0
27.09.2020 00:00:00 1,0 0,6 0,0
26.09.2020 23:00:00 2,2 1,8 0,0
26.09.2020 22:00:00 2,4 1,8 0,0
26.09.2020 21:00:00 3,4 2,1 0,0
26.09.2020 20:00:00 5,1 2,8 0,0
26.09.2020 19:00:00 10,1 4,3 0,0
26.09.2020 18:00:00 12,2 4,4 0,0
26.09.2020 17:00:00 13,2 3,5 0,0
26.09.2020 16:00:00 13,5 4,4 0,0
26.09.2020 15:00:00 13,0 3,5 0,0
26.09.2020 14:00:00 12,2 4,2 0,0
26.09.2020 13:00:00 11,9 3,7 0,0
26.09.2020 12:00:00 10,1 3,6 0,0
26.09.2020 11:00:00 9,7 3,0 0,0
26.09.2020 10:00:00 8,2 3,7 0,0
26.09.2020 09:00:00 3,2 3,2 0,0
26.09.2020 08:00:00 -0,3 -0,5 0,0
26.09.2020 07:00:00 -0,9 -1,3 0,0
26.09.2020 06:00:00 -0,7 -1,2 0,0
26.09.2020 05:00:00 0,2 -0,4 0,0
26.09.2020 04:00:00 0,6 -0,4 0,0
26.09.2020 03:00:00 1,7 0,2 0,0
26.09.2020 02:00:00 4,8 0,5 0,0
26.09.2020 01:00:00 7,1 1,3 0,0
26.09.2020 00:00:00 7,6 2,1 0,0
25.09.2020 23:00:00 7,5 3,1 0,0
25.09.2020 22:00:00 8,6 3,4 0,0
25.09.2020 21:00:00 9,2 4,2 0,0
25.09.2020 20:00:00 10,4 4,0 0,0
25.09.2020 19:00:00 11,1 3,8 0,0
25.09.2020 18:00:00 11,2 5,6 0,0
25.09.2020 17:00:00 12,2 5,2 0,0
25.09.2020 16:00:00 12,9 4,9 0,0
25.09.2020 15:00:00 12,5 5,0 0,0
25.09.2020 14:00:00 12,2 5,2 0,0
25.09.2020 13:00:00 11,8 5,0 0,0
25.09.2020 12:00:00 11,6 5,1 0,0
25.09.2020 11:00:00 11,0 6,2 0,0
25.09.2020 10:00:00 9,1 5,6 0,0
25.09.2020 09:00:00 8,5 4,8 0,0
25.09.2020 08:00:00 7,6 4,9 0,0
25.09.2020 07:00:00 6,9 4,7 0,0
25.09.2020 06:00:00 6,3 4,9 0,2
25.09.2020 05:00:00 4,5 3,5 0,0
25.09.2020 04:00:00 4,8 4,0 0,0
25.09.2020 03:00:00 3,9 3,6 0,0
25.09.2020 02:00:00 4,7 4,2 0,0
25.09.2020 01:00:00 4,9 4,5 0,0
25.09.2020 00:00:00 5,5 4,7 0,0
24.09.2020 23:00:00 6,7 5,9 0,0
24.09.2020 22:00:00 6,6 5,9 0,0
24.09.2020 21:00:00 6,9 6,1 0,4
24.09.2020 20:00:00 7,0 6,0 0,2
24.09.2020 19:00:00 7,2 6,4 0,2
24.09.2020 18:00:00 7,6 6,9 3,6
24.09.2020 17:00:00 8,0 6,6 4,0
24.09.2020 16:00:00 9,0 7,0 0,4
24.09.2020 15:00:00 9,0 7,0 1,0
24.09.2020 14:00:00 10,3 6,0 0,0
24.09.2020 13:00:00 10,9 6,4 0,0
24.09.2020 12:00:00 8,5 6,6 0,2
24.09.2020 11:00:00 7,7 7,1 0,4
24.09.2020 10:00:00 7,1 7,1 0,0
24.09.2020 09:00:00 5,7 5,7 0,0
24.09.2020 08:00:00 3,1 3,1 0,0
24.09.2020 07:00:00 2,1 2,0 0,0
24.09.2020 06:00:00 1,4 1,3 0,0
24.09.2020 05:00:00 2,4 2,3 0,0
24.09.2020 04:00:00 1,6 1,4 0,0
24.09.2020 03:00:00 2,5 2,3 0,0
24.09.2020 02:00:00 3,3 3,1 0,0
24.09.2020 01:00:00 4,0 3,7 0,0
24.09.2020 00:00:00 4,3 3,9 0,0
23.09.2020 23:00:00 5,5 4,9 0,0
23.09.2020 22:00:00 7,0 6,3 0,0
23.09.2020 21:00:00 7,9 6,7 0,0
23.09.2020 20:00:00 8,8 7,0 0,0
23.09.2020 19:00:00 9,7 7,5 0,0
23.09.2020 18:00:00 10,4 7,2 0,0
23.09.2020 17:00:00 11,6 7,6 0,0
23.09.2020 16:00:00 12,2 8,0 0,0
23.09.2020 15:00:00 11,9 8,0 0,0
23.09.2020 14:00:00 11,8 7,8 0,0
23.09.2020 13:00:00 12,3 8,5 0,0
23.09.2020 12:00:00 11,1 8,9 0,0
23.09.2020 11:00:00 10,5 8,4 0,0
23.09.2020 10:00:00 9,3 7,7 0,0
23.09.2020 09:00:00 8,6 7,7 0,0
23.09.2020 08:00:00 8,4 7,5 0,0
23.09.2020 07:00:00 8,9 8,2 0,0
23.09.2020 06:00:00 9,4 8,6 0,4
23.09.2020 05:00:00 9,8 8,5 0,2
23.09.2020 04:00:00 11,0 10,5 0,0
23.09.2020 03:00:00 11,3 10,6 0,2
23.09.2020 02:00:00 11,6 10,8 1,2

tt = temperature
td = dewpoint
rr = precipitation

Next stations